Time;durP1;ratioP1;P1;durP2;ratioP2;P2;SDS_P1;SDS_P2;PMS_P1;PMS_P2;Temp;Humidity;BMP_temperature;BMP_pressure;BME280_temperature;BME280_humidity;BME280_pressure;Samples;Min_cycle;Max_cycle;Signal;HPM_P1;HPM_P2
2022/03/15 00:00:34;;;;;;;4.78;2.47;;;2.90;99.90;;;;;;4859033;29;20102;-90
2022/03/15 00:03:01;;;;;;;4.82;2.75;;;2.90;99.90;;;;;;4878971;29;20049;-90
2022/03/15 00:05:26;;;;;;;1.75;1.63;;;3.70;99.90;;;;;;4878268;29;20057;-89
2022/03/15 00:07:53;;;;;;;3.00;1.93;;;2.80;99.90;;;;;;4870132;29;20077;-90
2022/03/15 00:10:18;;;;;;;7.80;1.90;;;3.70;99.90;;;;;;4879234;29;20105;-90
2022/03/15 00:12:46;;;;;;;6.07;2.37;;;2.80;99.90;;;;;;4888059;29;20041;-90
2022/03/15 00:15:12;;;;;;;4.88;3.55;;;2.70;99.90;;;;;;4879006;29;20049;-90
2022/03/15 00:17:41;;;;;;;3.13;2.25;;;2.70;99.90;;;;;;4891751;29;20043;-90
2022/03/15 00:20:09;;;;;;;4.65;2.63;;;2.70;99.90;;;;;;4862270;29;20052;-90
2022/03/15 00:22:36;;;;;;;5.70;2.22;;;2.70;99.90;;;;;;4876472;29;20087;-90
2022/03/15 00:25:08;;;;;;;10.65;4.10;;;2.70;99.90;;;;;;4869606;29;20062;-89
2022/03/15 00:27:34;;;;;;;5.05;3.00;;;2.70;99.90;;;;;;4864533;29;20449;-90
2022/03/15 00:30:03;;;;;;;6.63;2.50;;;2.70;99.90;;;;;;4866014;29;20067;-89
2022/03/15 00:32:29;;;;;;;8.15;2.92;;;2.70;99.90;;;;;;4878568;29;20400;-90
2022/03/15 00:34:55;;;;;;;5.83;1.97;;;2.70;99.90;;;;;;4869485;29;20377;-89
2022/03/15 00:37:20;;;;;;;5.05;2.38;;;2.90;99.90;;;;;;4869235;29;20097;-90
2022/03/15 00:39:46;;;;;;;4.50;2.15;;;3.40;99.90;;;;;;4823103;29;20509;-90
2022/03/15 00:42:12;;;;;;;5.93;2.05;;;3.40;99.90;;;;;;4870544;29;20049;-85
2022/03/15 00:44:38;;;;;;;4.25;2.30;;;3.50;99.90;;;;;;4886542;29;20551;-89
2022/03/15 00:47:05;;;;;;;6.50;3.00;;;3.80;99.90;;;;;;4859123;29;20061;-89
2022/03/15 00:49:31;;;;;;;;;;;2.70;99.90;;;;;;4852662;29;20512;-90
2022/03/15 00:51:57;;;;;;;5.25;3.00;;;2.80;99.90;;;;;;4854333;29;19923;-90
2022/03/15 00:54:23;;;;;;;2.97;2.37;;;2.60;99.90;;;;;;4862199;29;20496;-90
2022/03/15 00:56:49;;;;;;;7.40;3.53;;;2.70;99.90;;;;;;4865881;29;20052;-90
2022/03/15 00:59:15;;;;;;;4.88;2.65;;;2.60;99.90;;;;;;4870706;29;20109;-85
2022/03/15 01:01:41;;;;;;;16.47;3.00;;;2.60;99.90;;;;;;4848810;29;20056;-90
2022/03/15 01:04:07;;;;;;;8.10;3.23;;;2.70;99.90;;;;;;4868506;29;20057;-90
2022/03/15 01:06:34;;;;;;;7.55;2.53;;;3.20;99.90;;;;;;4866363;29;20077;-90
2022/03/15 01:09:00;;;;;;;;;;;2.60;99.90;;;;;;4866127;29;20128;-88
2022/03/15 01:11:26;;;;;;;3.85;3.00;;;2.60;99.90;;;;;;4866967;29;19923;-90
2022/03/15 01:13:52;;;;;;;8.93;3.43;;;2.60;99.90;;;;;;4870762;29;20142;-90
2022/03/15 01:16:18;;;;;;;7.83;3.90;;;2.90;99.90;;;;;;4863345;29;20052;-85
2022/03/15 01:18:44;;;;;;;5.13;4.03;;;2.60;99.90;;;;;;4877293;29;20048;-87
2022/03/15 01:21:13;;;;;;;6.43;3.33;;;3.30;99.90;;;;;;4867989;29;20514;-90
2022/03/15 01:23:40;;;;;;;4.80;4.30;;;2.50;99.90;;;;;;4868436;29;20045;-90
2022/03/15 01:26:06;;;;;;;3.78;2.67;;;2.90;99.90;;;;;;4866756;29;20056;-90
2022/03/15 01:28:33;;;;;;;4.65;3.58;;;2.80;99.90;;;;;;4840400;29;20049;-90
2022/03/15 01:30:59;;;;;;;5.07;2.20;;;2.40;99.90;;;;;;4888550;29;20129;-90
2022/03/15 01:33:25;;;;;;;6.03;3.00;;;2.50;99.90;;;;;;4865889;29;20453;-89
2022/03/15 01:35:51;;;;;;;5.53;4.07;;;3.10;99.90;;;;;;4870334;29;20290;-90
2022/03/15 01:38:16;;;;;;;3.47;3.17;;;3.20;99.90;;;;;;4871973;29;20063;-88
2022/03/15 01:40:42;;;;;;;4.73;2.93;;;2.50;99.90;;;;;;4889299;29;20037;-89
2022/03/15 01:43:08;;;;;;;7.33;2.97;;;2.20;99.90;;;;;;4872468;29;20116;-90
2022/03/15 01:45:36;;;;;;;7.07;3.55;;;2.30;99.90;;;;;;4843756;29;20320;-90
2022/03/15 01:48:04;;;;;;;4.57;2.92;;;2.20;99.90;;;;;;4856576;29;20048;-89
2022/03/15 01:50:29;;;;;;;6.30;3.67;;;2.20;99.90;;;;;;4889699;29;20493;-90
2022/03/15 01:52:55;;;;;;;6.20;4.20;;;2.20;99.90;;;;;;4848391;29;20044;-90
2022/03/15 01:55:21;;;;;;;7.83;3.43;;;2.30;99.90;;;;;;4864524;29;20064;-89
2022/03/15 01:57:47;;;;;;;5.07;3.17;;;2.30;99.90;;;;;;4869895;29;20389;-88
2022/03/15 02:00:15;;;;;;;10.52;2.78;;;2.20;99.90;;;;;;4867371;29;20132;-89
2022/03/15 02:02:41;;;;;;;6.10;3.28;;;2.20;99.90;;;;;;4861119;29;20056;-90
2022/03/15 02:05:07;;;;;;;2.97;2.33;;;2.20;99.90;;;;;;4866186;29;20052;-90
2022/03/15 02:07:33;;;;;;;8.32;3.53;;;2.20;99.90;;;;;;4869231;29;20534;-90
2022/03/15 02:09:58;;;;;;;6.97;4.03;;;3.20;99.90;;;;;;4860669;29;20057;-89
2022/03/15 02:12:24;;;;;;;6.60;2.97;;;2.30;99.90;;;;;;4869065;29;20045;-90
2022/03/15 02:14:50;;;;;;;9.48;3.40;;;2.80;99.90;;;;;;4867282;29;20040;-90
2022/03/15 02:17:16;;;;;;;5.93;3.30;;;2.50;99.90;;;;;;4874224;29;20046;-90
2022/03/15 02:19:43;;;;;;;5.53;3.67;;;2.90;99.90;;;;;;4863794;29;20061;-90
2022/03/15 02:22:09;;;;;;;5.57;4.75;;;2.20;99.90;;;;;;4862149;29;20040;-88
2022/03/15 02:24:35;;;;;;;4.55;3.35;;;2.30;99.90;;;;;;4869645;29;20572;-89
2022/03/15 02:27:01;;;;;;;7.97;3.83;;;2.30;99.90;;;;;;4832447;29;20049;-90
2022/03/15 02:29:27;;;;;;;8.38;4.13;;;2.30;99.90;;;;;;4855904;29;20040;-89
2022/03/15 02:31:54;;;;;;;8.27;3.53;;;2.40;99.90;;;;;;4883540;29;20045;-89
2022/03/15 02:34:21;;;;;;;6.35;4.07;;;2.90;99.90;;;;;;4876376;29;20298;-90
2022/03/15 02:36:47;;;;;;;9.77;3.80;;;3.20;99.90;;;;;;4869694;29;20085;-90
2022/03/15 02:39:13;;;;;;;8.60;4.27;;;2.60;99.90;;;;;;4866615;29;20053;-90
2022/03/15 02:41:39;;;;;;;5.72;4.05;;;2.60;99.90;;;;;;4865718;29;20052;-89
2022/03/15 02:44:06;;;;;;;5.25;3.65;;;3.20;99.90;;;;;;4866166;29;20040;-90
2022/03/15 02:46:33;;;;;;;4.63;3.42;;;2.70;99.90;;;;;;4865843;29;20082;-85
2022/03/15 02:48:58;;;;;;;8.98;4.00;;;2.70;99.90;;;;;;4864593;29;20064;-89
2022/03/15 02:51:25;;;;;;;8.87;4.17;;;2.90;99.90;;;;;;4870530;29;20044;-87
2022/03/15 02:53:52;;;;;;;6.05;3.72;;;2.80;99.90;;;;;;4866736;29;20044;-90
2022/03/15 02:56:19;;;;;;;9.93;3.75;;;2.80;99.90;;;;;;4840530;29;20088;-90
2022/03/15 02:58:45;;;;;;;5.95;3.75;;;3.10;99.90;;;;;;4879155;29;20098;-88
2022/03/15 03:01:11;;;;;;;5.37;4.03;;;2.80;99.90;;;;;;4879487;29;20040;-89
2022/03/15 03:03:37;;;;;;;8.33;4.30;;;2.80;99.90;;;;;;4875445;29;20108;-86
2022/03/15 03:06:04;;;;;;;4.82;3.92;;;3.90;99.90;;;;;;4868555;29;20053;-90
2022/03/15 03:08:30;;;;;;;8.38;4.97;;;2.70;99.90;;;;;;4864337;29;20053;-90
2022/03/15 03:10:57;;;;;;;7.53;4.05;;;2.70;99.90;;;;;;4868542;29;20131;-89
2022/03/15 03:13:26;;;;;;;13.95;4.95;;;2.70;99.90;;;;;;4868724;29;20059;-89
2022/03/15 03:15:58;;;;;;;10.98;4.78;;;3.40;99.90;;;;;;4874591;29;20385;-90
2022/03/15 03:18:33;;;;;;;6.07;3.65;;;2.70;99.90;;;;;;4866201;29;20185;-89
2022/03/15 03:21:01;;;;;;;5.82;3.65;;;3.20;99.90;;;;;;4842982;29;20559;-90
2022/03/15 03:23:28;;;;;;;7.80;4.82;;;2.60;99.90;;;;;;4866768;29;20041;-89
2022/03/15 03:25:56;;;;;;;5.63;4.57;;;2.60;99.90;;;;;;4877131;29;20045;-90
2022/03/15 03:28:23;;;;;;;7.28;5.22;;;2.60;99.90;;;;;;4851678;29;20045;-90
2022/03/15 03:30:48;;;;;;;7.25;4.28;;;2.70;99.90;;;;;;4866877;29;20099;-87
2022/03/15 03:33:16;;;;;;;7.50;3.83;;;2.50;99.90;;;;;;4881651;29;20140;-88
2022/03/15 03:35:43;;;;;;;8.70;4.47;;;2.50;99.90;;;;;;4871870;29;20049;-89
2022/03/15 03:38:10;;;;;;;10.38;4.95;;;2.50;99.90;;;;;;4867816;29;20055;-90
2022/03/15 03:40:35;;;;;;;7.97;5.03;;;2.40;99.90;;;;;;4857942;29;20052;-90
2022/03/15 03:43:01;;;;;;;4.43;3.47;;;2.40;99.90;;;;;;4889015;29;20422;-90
2022/03/15 03:45:27;;;;;;;5.82;4.68;;;2.70;99.90;;;;;;4866965;29;20080;-90
2022/03/15 03:47:53;;;;;;;7.35;4.53;;;2.40;99.90;;;;;;4849670;29;20131;-90
2022/03/15 03:50:19;;;;;;;6.00;3.80;;;2.40;99.90;;;;;;4875294;29;20049;-90
2022/03/15 03:52:45;;;;;;;5.57;3.88;;;3.10;99.90;;;;;;4890327;29;20049;-89
2022/03/15 03:55:11;;;;;;;4.53;3.95;;;2.40;99.90;;;;;;4873477;29;20049;-89
2022/03/15 03:57:37;;;;;;;5.93;3.67;;;2.40;99.90;;;;;;4853033;29;20046;-90
2022/03/15 04:00:06;;;;;;;6.35;4.30;;;2.40;99.90;;;;;;4881476;29;20139;-90
2022/03/15 04:02:32;;;;;;;6.95;4.05;;;2.40;99.90;;;;;;4883599;29;20044;-89
2022/03/15 04:04:57;;;;;;;8.47;4.80;;;3.00;99.90;;;;;;4850568;29;20085;-90
2022/03/15 04:07:24;;;;;;;6.87;5.00;;;2.40;99.90;;;;;;4869948;29;20103;-90
2022/03/15 04:09:49;;;;;;;7.87;4.83;;;2.50;99.90;;;;;;4868957;29;20045;-90
2022/03/15 04:12:16;;;;;;;14.37;5.73;;;2.90;99.90;;;;;;4876680;29;20045;-88
2022/03/15 04:14:45;;;;;;;11.00;4.85;;;2.70;99.90;;;;;;4872931;29;20048;-90
2022/03/15 04:17:11;;;;;;;8.85;4.82;;;2.50;99.90;;;;;;4877098;29;20050;-90
2022/03/15 04:19:36;;;;;;;8.57;5.03;;;2.50;99.90;;;;;;4854094;29;20044;-90
2022/03/15 04:22:03;;;;;;;8.60;4.33;;;3.00;99.90;;;;;;4853677;29;20048;-88
2022/03/15 04:24:28;;;;;;;7.85;4.40;;;2.60;99.90;;;;;;4868164;29;20057;-90
2022/03/15 04:26:54;;;;;;;6.73;4.73;;;2.60;99.90;;;;;;4875349;29;20040;-90
2022/03/15 04:29:21;;;;;;;18.85;4.82;;;2.60;99.90;;;;;;4868637;29;20445;-90
2022/03/15 04:31:46;;;;;;;6.30;4.57;;;2.60;99.90;;;;;;4871413;29;20057;-85
2022/03/15 04:34:12;;;;;;;7.67;4.17;;;3.40;99.90;;;;;;4854209;29;20139;-90
2022/03/15 04:36:40;;;;;;;8.43;4.75;;;3.30;99.90;;;;;;4883330;29;20055;-90
2022/03/15 04:39:05;;;;;;;9.68;4.20;;;3.10;99.90;;;;;;4838784;29;20404;-90
2022/03/15 04:41:31;;;;;;;9.48;4.18;;;2.80;99.90;;;;;;4858763;29;20041;-89
2022/03/15 04:43:57;;;;;;;14.87;6.07;;;3.70;99.90;;;;;;4880486;29;20060;-90
2022/03/15 04:46:23;;;;;;;6.77;4.07;;;2.80;99.90;;;;;;4865981;29;20452;-90
2022/03/15 04:48:49;;;;;;;5.23;4.03;;;3.10;99.90;;;;;;4869773;29;20088;-85
2022/03/15 04:51:15;;;;;;;5.37;4.07;;;2.80;99.90;;;;;;4870693;29;20053;-90
2022/03/15 04:53:40;;;;;;;6.20;5.20;;;3.90;99.90;;;;;;4872478;29;20497;-89
2022/03/15 04:56:06;;;;;;;7.45;4.65;;;2.90;99.90;;;;;;4890768;29;20485;-90
2022/03/15 04:58:32;;;;;;;4.90;4.35;;;2.90;99.90;;;;;;4872633;29;20127;-90
2022/03/15 05:00:58;;;;;;;9.70;4.97;;;3.10;99.90;;;;;;4885336;29;20041;-90
2022/03/15 05:03:24;;;;;;;7.23;4.87;;;3.80;99.90;;;;;;4880844;29;20044;-90
2022/03/15 05:05:50;;;;;;;9.97;6.33;;;3.10;99.90;;;;;;4863429;29;20053;-87
2022/03/15 05:08:16;;;;;;;9.80;6.10;;;3.60;99.90;;;;;;4850010;29;20062;-90
2022/03/15 05:13:26;;;;;;;15.43;5.68;;;3.90;99.90;;;;;;4870949;29;20441;-90
2022/03/15 05:15:53;;;;;;;14.13;6.37;;;3.20;99.90;;;;;;4861191;29;20482;-86
2022/03/15 05:18:19;;;;;;;8.38;5.78;;;3.20;99.90;;;;;;4876156;29;20303;-90
2022/03/15 05:20:44;;;;;;;11.13;6.07;;;4.40;99.90;;;;;;4884679;29;20033;-90
2022/03/15 05:23:10;;;;;;;12.97;6.63;;;3.30;99.90;;;;;;4864212;29;20052;-90
2022/03/15 05:25:36;;;;;;;8.77;5.78;;;4.50;99.90;;;;;;4851166;29;20098;-90
2022/03/15 05:28:02;;;;;;;17.83;6.10;;;3.30;99.90;;;;;;4878715;29;20060;-88
2022/03/15 05:30:28;;;;;;;10.88;6.03;;;3.30;99.90;;;;;;4861057;29;20045;-89
2022/03/15 05:32:53;;;;;;;14.80;7.47;;;3.40;99.90;;;;;;4878235;29;20185;-85
2022/03/15 05:35:19;;;;;;;9.33;6.60;;;4.00;99.90;;;;;;4874194;29;20499;-89
2022/03/15 05:37:45;;;;;;;11.07;6.27;;;3.40;99.90;;;;;;4866654;29;20536;-90
2022/03/15 05:40:11;;;;;;;12.13;8.17;;;3.40;99.90;;;;;;4877648;29;20045;-89
2022/03/15 05:42:37;;;;;;;11.95;7.07;;;3.50;99.90;;;;;;4879986;29;20069;-89
2022/03/15 05:45:04;;;;;;;12.30;6.27;;;3.50;99.90;;;;;;4855961;29;20079;-90
2022/03/15 05:47:29;;;;;;;12.00;6.38;;;3.50;99.90;;;;;;4870623;29;20041;-89
2022/03/15 05:49:55;;;;;;;18.35;7.90;;;3.50;99.90;;;;;;4887919;29;20054;-86
2022/03/15 05:52:21;;;;;;;10.80;7.45;;;3.90;99.90;;;;;;4888386;29;20041;-89
2022/03/15 05:54:46;;;;;;;17.17;8.13;;;3.60;99.90;;;;;;4877804;29;20053;-89
2022/03/15 05:57:12;;;;;;;13.73;8.63;;;3.60;99.90;;;;;;4863797;29;20514;-89
2022/03/15 05:59:38;;;;;;;16.07;9.07;;;3.60;99.90;;;;;;4871261;29;20053;-89
2022/03/15 06:02:04;;;;;;;12.97;7.80;;;3.70;99.90;;;;;;4858483;29;20108;-89
2022/03/15 06:04:30;;;;;;;16.87;9.03;;;4.70;99.90;;;;;;4877118;29;20057;-89
2022/03/15 06:06:56;;;;;;;18.27;9.60;;;3.70;99.90;;;;;;4883143;29;20049;-88
2022/03/15 06:09:25;;;;;;;14.07;8.23;;;3.80;99.90;;;;;;4860813;29;20128;-90
2022/03/15 06:11:52;;;;;;;18.65;9.85;;;4.20;99.90;;;;;;4884673;29;20123;-89
2022/03/15 06:14:20;;;;;;;15.93;8.30;;;3.80;99.90;;;;;;4845707;29;20083;-89
2022/03/15 06:16:46;;;;;;;17.05;8.68;;;3.90;99.90;;;;;;4862001;29;20041;-89
2022/03/15 06:19:12;;;;;;;15.02;9.43;;;4.80;99.90;;;;;;4866196;29;20132;-87
2022/03/15 06:21:39;;;;;;;14.67;9.20;;;4.40;99.90;;;;;;4871025;29;20548;-90
2022/03/15 06:24:06;;;;;;;16.48;9.77;;;5.00;99.90;;;;;;4850787;29;20080;-89
2022/03/15 06:26:32;;;;;;;19.30;10.65;;;4.00;99.90;;;;;;4862722;29;20092;-89
2022/03/15 06:28:59;;;;;;;21.37;10.73;;;4.80;99.90;;;;;;4861868;29;20087;-89
2022/03/15 06:31:27;;;;;;;21.42;10.52;;;4.10;99.90;;;;;;4872718;29;20045;-88
2022/03/15 06:33:52;;;;;;;20.85;11.98;;;4.40;99.90;;;;;;4879728;29;20040;-90
2022/03/15 06:36:18;;;;;;;24.53;11.57;;;4.20;99.90;;;;;;4858711;29;20105;-90
2022/03/15 06:38:44;;;;;;;18.27;11.03;;;4.20;99.90;;;;;;4866062;29;20082;-90
2022/03/15 06:41:11;;;;;;;23.53;11.83;;;4.20;99.90;;;;;;4862490;29;20049;-89
2022/03/15 06:43:39;;;;;;;20.73;12.55;;;4.60;99.90;;;;;;4837953;29;20068;-90
2022/03/15 06:46:06;;;;;;;24.58;12.63;;;4.30;99.90;;;;;;4873689;29;20054;-86
2022/03/15 06:48:31;;;;;;;14.73;9.88;;;4.30;99.90;;;;;;4870981;29;20065;-89
2022/03/15 06:50:57;;;;;;;22.50;12.47;;;4.40;99.90;;;;;;4853807;29;20041;-94
2022/03/15 06:53:23;;;;;;;23.97;14.00;;;4.90;99.90;;;;;;4867779;29;20117;-93
2022/03/15 06:55:49;;;;;;;19.53;11.60;;;4.50;99.90;;;;;;4845925;29;20123;-93
2022/03/15 06:58:15;;;;;;;21.40;10.45;;;5.20;99.90;;;;;;4877033;29;20068;-91
2022/03/15 07:00:41;;;;;;;14.43;11.03;;;4.60;99.90;;;;;;4868107;29;20057;-93
2022/03/15 07:03:07;;;;;;;23.53;12.67;;;5.60;99.90;;;;;;4859537;29;20045;-88
2022/03/15 07:05:32;;;;;;;19.60;11.10;;;4.70;99.90;;;;;;4846113;29;20137;-93
2022/03/15 07:07:58;;;;;;;20.08;11.30;;;4.70;99.90;;;;;;4861572;29;20061;-92
2022/03/15 07:10:24;;;;;;;23.20;12.05;;;4.70;99.90;;;;;;4865672;29;20064;-91
2022/03/15 07:12:50;;;;;;;18.43;11.50;;;4.70;99.90;;;;;;4851102;29;20065;-93
2022/03/15 07:15:17;;;;;;;21.13;13.40;;;4.80;99.90;;;;;;4853288;29;20048;-93
2022/03/15 07:17:53;;;;;;;22.42;11.85;;;4.90;99.90;;;;;;4860364;29;20093;-93
2022/03/15 07:20:20;;;;;;;18.70;12.33;;;4.90;99.90;;;;;;4850092;29;20083;-94
2022/03/15 07:22:49;;;;;;;21.33;13.93;;;4.40;99.90;;;;;;4850657;29;20383;-94
2022/03/15 07:25:16;;;;;;;22.95;12.93;;;4.90;99.90;;;;;;4875426;29;20049;-87
2022/03/15 07:27:52;;;;;;;29.67;12.95;;;5.00;99.90;;;;;;4878837;29;20085;-94
2022/03/15 07:30:18;;;;;;;25.48;13.35;;;5.10;99.90;;;;;;4874028;29;20543;-90
2022/03/15 07:32:44;;;;;;;22.77;12.55;;;5.10;99.90;;;;;;4874417;29;20041;-84
2022/03/15 07:35:10;;;;;;;20.30;14.40;;;5.20;99.90;;;;;;4868545;29;20491;-83
2022/03/15 07:37:36;;;;;;;26.17;14.77;;;5.20;99.90;;;;;;4875749;29;20119;-87
2022/03/15 07:40:03;;;;;;;25.43;13.47;;;5.30;99.90;;;;;;4865444;29;20084;-87
2022/03/15 07:42:30;;;;;;;20.77;13.75;;;5.30;99.90;;;;;;4871696;29;20721;-92
2022/03/15 07:44:55;;;;;;;23.00;14.13;;;5.40;99.90;;;;;;4880886;29;20056;-91
2022/03/15 07:47:21;;;;;;;23.03;14.07;;;5.50;99.90;;;;;;4883539;29;20038;-92
2022/03/15 07:49:51;;;;;;;35.03;15.90;;;5.50;99.90;;;;;;4863672;29;20480;-91
2022/03/15 07:52:17;;;;;;;27.52;13.45;;;5.60;99.90;;;;;;4861491;29;20041;-90
2022/03/15 07:54:42;;;;;;;24.97;13.47;;;5.60;99.90;;;;;;4873124;29;20100;-88
2022/03/15 07:57:09;;;;;;;25.33;13.20;;;5.70;99.90;;;;;;4867097;29;20056;-92
2022/03/15 07:59:35;;;;;;;22.02;13.05;;;5.70;99.90;;;;;;4873479;29;20050;-90
2022/03/15 08:02:01;;;;;;;21.40;12.52;;;5.80;99.90;;;;;;4857226;29;20135;-92
2022/03/15 08:04:27;;;;;;;23.47;14.23;;;5.80;99.90;;;;;;4891521;29;20580;-89
2022/03/15 08:06:52;;;;;;;27.40;15.07;;;5.80;99.90;;;;;;4871014;29;20076;-91
2022/03/15 08:09:18;;;;;;;26.93;14.37;;;5.80;99.90;;;;;;4887664;29;20072;-89
2022/03/15 08:11:45;;;;;;;24.40;13.90;;;5.80;99.90;;;;;;4876303;29;20053;-89
2022/03/15 08:14:11;;;;;;;21.80;14.68;;;5.80;99.90;;;;;;4854989;29;20083;-89
2022/03/15 08:16:37;;;;;;;25.03;14.33;;;5.80;99.90;;;;;;4852026;29;20057;-89
2022/03/15 08:19:03;;;;;;;19.00;13.57;;;5.90;99.90;;;;;;4861513;29;20089;-88
2022/03/15 08:21:31;;;;;;;27.23;12.98;;;5.90;99.90;;;;;;4874335;29;20048;-88
2022/03/15 08:23:57;;;;;;;23.35;14.80;;;5.90;99.90;;;;;;4854263;29;20072;-89
2022/03/15 08:26:23;;;;;;;23.30;15.75;;;6.10;99.90;;;;;;4857503;29;20061;-89
2022/03/15 08:28:49;;;;;;;23.60;14.50;;;6.10;99.90;;;;;;4876304;29;20108;-91
2022/03/15 08:31:16;;;;;;;18.90;13.47;;;6.00;99.90;;;;;;4877208;29;20296;-83
2022/03/15 08:33:44;;;;;;;;;;;6.00;99.90;;;;;;4879044;29;20043;-89
2022/03/15 08:36:10;;;;;;;20.00;13.82;;;6.00;99.90;;;;;;4874543;29;20559;-89
2022/03/15 08:38:36;;;;;;;25.92;14.55;;;6.00;99.90;;;;;;4866215;29;20114;-90
2022/03/15 08:41:02;;;;;;;21.57;13.10;;;6.00;99.90;;;;;;4862856;29;20042;-91
2022/03/15 08:43:28;;;;;;;23.33;14.82;;;6.00;99.90;;;;;;4880787;29;20037;-92
2022/03/15 08:45:54;;;;;;;20.87;13.70;;;6.50;99.90;;;;;;4848862;29;20046;-92
2022/03/15 08:48:20;;;;;;;24.60;14.33;;;6.10;99.90;;;;;;4875610;29;20041;-85
2022/03/15 08:50:46;;;;;;;26.92;15.70;;;6.10;99.90;;;;;;4869426;29;20081;-92
2022/03/15 08:53:13;;;;;;;22.00;14.80;;;6.10;99.90;;;;;;4868552;29;20124;-92
2022/03/15 08:55:39;;;;;;;23.17;15.13;;;6.20;99.90;;;;;;4878131;29;20072;-92
2022/03/15 08:58:04;;;;;;;23.67;13.63;;;6.20;99.90;;;;;;4852416;29;20049;-91
2022/03/15 09:00:30;;;;;;;17.77;13.37;;;6.20;99.90;;;;;;4878104;29;20072;-92
2022/03/15 09:02:56;;;;;;;34.70;15.17;;;6.20;99.90;;;;;;4876585;29;20045;-90
2022/03/15 09:05:21;;;;;;;24.73;15.50;;;6.20;99.90;;;;;;4875775;29;20129;-86
2022/03/15 09:07:50;;;;;;;24.00;14.23;;;6.30;99.90;;;;;;4879622;29;20454;-89
2022/03/15 09:10:16;;;;;;;25.25;14.23;;;6.70;99.90;;;;;;4870038;29;20500;-89
2022/03/15 09:12:42;;;;;;;26.97;15.40;;;6.30;99.90;;;;;;4876075;29;20076;-89
2022/03/15 09:15:08;;;;;;;24.40;14.03;;;6.30;99.90;;;;;;4886365;29;20077;-89
2022/03/15 09:17:34;;;;;;;23.38;16.25;;;6.40;99.90;;;;;;4859166;29;20052;-88
2022/03/15 09:19:59;;;;;;;21.37;13.67;;;6.30;99.90;;;;;;4890446;29;20108;-89
2022/03/15 09:22:25;;;;;;;26.83;13.87;;;6.40;99.90;;;;;;4878679;29;20524;-89
2022/03/15 09:24:51;;;;;;;32.40;15.63;;;6.50;99.90;;;;;;4886935;29;20437;-89
2022/03/15 09:27:16;;;;;;;24.63;13.40;;;6.50;99.90;;;;;;4850097;29;20088;-90
2022/03/15 09:29:42;;;;;;;26.40;15.17;;;6.50;99.90;;;;;;4861978;29;20056;-89
2022/03/15 09:32:10;;;;;;;24.70;15.00;;;6.60;99.90;;;;;;4847775;29;20057;-89
2022/03/15 09:34:37;;;;;;;18.83;13.63;;;6.60;99.90;;;;;;4863425;29;20053;-89
2022/03/15 09:37:05;;;;;;;25.98;16.27;;;6.70;99.90;;;;;;4868296;29;20041;-88
2022/03/15 09:39:31;;;;;;;27.67;15.52;;;6.70;99.90;;;;;;4887632;29;20055;-89
2022/03/15 09:41:59;;;;;;;27.57;14.10;;;6.80;99.90;;;;;;4849002;29;20052;-89
2022/03/15 09:44:28;;;;;;;21.98;15.20;;;6.80;99.90;;;;;;4872896;29;20052;-86
2022/03/15 09:46:58;;;;;;;25.60;13.77;;;6.90;99.90;;;;;;4874178;29;20057;-89
2022/03/15 09:49:25;;;;;;;19.38;14.50;;;6.90;99.90;;;;;;4868255;29;20092;-87
2022/03/15 09:51:54;;;;;;;24.75;13.90;;;6.90;99.90;;;;;;4871267;29;20079;-92
2022/03/15 09:54:20;;;;;;;22.75;14.40;;;6.90;99.90;;;;;;4870225;29;20053;-90
2022/03/15 09:56:46;;;;;;;23.67;12.98;;;6.90;99.90;;;;;;4867598;29;20149;-90
2022/03/15 09:59:15;;;;;;;22.00;13.77;;;6.40;99.90;;;;;;4851137;29;20076;-89
2022/03/15 10:01:42;;;;;;;20.50;13.60;;;7.00;99.90;;;;;;4864330;29;20056;-92
2022/03/15 10:04:08;;;;;;;20.25;12.98;;;7.50;99.90;;;;;;4863226;29;20064;-90
2022/03/15 10:06:37;;;;;;;20.90;13.40;;;7.10;99.90;;;;;;4877378;29;20053;-90
2022/03/15 10:09:06;;;;;;;29.85;15.27;;;7.10;99.90;;;;;;4870010;29;20041;-90
2022/03/15 10:11:33;;;;;;;21.77;13.43;;;7.10;99.90;;;;;;4891114;29;20517;-88
2022/03/15 10:13:59;;;;;;;23.58;15.68;;;7.20;99.90;;;;;;4843225;29;20077;-91
2022/03/15 10:16:35;;;;;;;22.83;14.38;;;7.30;99.90;;;;;;4881002;29;20059;-89
2022/03/15 10:19:11;;;;;;;20.67;12.43;;;7.30;99.90;;;;;;4874296;29;20523;-90
2022/03/15 10:21:57;;;;;;;23.35;14.60;;;7.40;99.90;;;;;;4854561;29;20373;-86
2022/03/15 10:24:29;;;;;;;28.65;15.30;;;7.50;99.90;;;;;;4859837;29;20060;-87
2022/03/15 10:26:59;;;;;;;19.23;14.07;;;7.60;99.90;;;;;;4883261;29;20061;-89
2022/03/15 10:29:28;;;;;;;23.15;14.10;;;7.70;99.90;;;;;;4850998;29;20168;-89
2022/03/15 10:31:54;;;;;;;19.48;12.88;;;7.80;99.90;;;;;;4889814;29;20139;-88
2022/03/15 10:34:22;;;;;;;24.33;13.87;;;7.80;99.90;;;;;;4861236;29;20132;-88
2022/03/15 10:36:54;;;;;;;22.38;13.20;;;7.90;99.90;;;;;;4866843;29;20045;-88
2022/03/15 10:39:20;;;;;;;18.75;12.90;;;8.10;99.90;;;;;;4880862;29;20049;-87
2022/03/15 10:41:58;;;;;;;18.90;13.32;;;8.00;99.90;;;;;;4871252;29;20117;-90
2022/03/15 10:44:29;;;;;;;19.92;13.48;;;8.10;99.90;;;;;;4889165;29;20045;-90
2022/03/15 10:46:58;;;;;;;18.83;13.35;;;8.10;99.90;;;;;;4866566;29;20076;-90
2022/03/15 10:49:24;;;;;;;22.45;12.60;;;8.30;99.90;;;;;;4875954;29;20063;-89
2022/03/15 10:51:52;;;;;;;21.50;12.43;;;8.30;99.90;;;;;;4853860;29;20433;-90
2022/03/15 10:54:22;;;;;;;25.60;14.82;;;8.20;99.90;;;;;;4881370;29;20128;-90
2022/03/15 10:56:56;;;;;;;19.98;11.27;;;8.30;99.90;;;;;;4861104;29;20105;-90
2022/03/15 10:59:25;;;;;;;22.33;11.90;;;8.30;99.90;;;;;;4848352;29;20077;-89
2022/03/15 11:01:51;;;;;;;27.63;13.52;;;8.30;99.90;;;;;;4894164;29;20084;-89
2022/03/15 11:04:20;;;;;;;19.20;12.25;;;8.30;99.90;;;;;;4861831;29;20108;-89
2022/03/15 11:06:51;;;;;;;20.02;12.32;;;8.40;99.90;;;;;;4892699;29;20535;-89
2022/03/15 11:09:28;;;;;;;20.27;12.27;;;8.40;99.90;;;;;;4859730;29;20512;-89
2022/03/15 11:12:05;;;;;;;17.85;12.55;;;8.40;99.90;;;;;;4843828;29;20092;-89
2022/03/15 11:14:39;;;;;;;24.00;11.60;;;8.50;99.90;;;;;;4889061;29;20519;-89
2022/03/15 11:17:20;;;;;;;16.40;12.82;;;8.60;99.90;;;;;;4845431;29;20056;-89
2022/03/15 11:19:53;;;;;;;20.63;12.80;;;8.80;99.90;;;;;;4843739;29;20117;-89
2022/03/15 11:22:24;;;;;;;19.13;11.52;;;8.90;99.90;;;;;;4856823;29;20136;-90
2022/03/15 11:25:08;;;;;;;24.17;11.77;;;9.10;99.90;;;;;;4877980;29;20107;-88
2022/03/15 11:27:40;;;;;;;18.92;11.18;;;9.20;99.90;;;;;;4847252;29;20053;-88
2022/03/15 11:30:11;;;;;;;22.45;11.88;;;8.90;99.90;;;;;;4879983;29;20063;-87
2022/03/15 11:32:37;;;;;;;16.95;11.60;;;9.40;99.90;;;;;;4891343;29;20041;-89
2022/03/15 11:35:08;;;;;;;22.02;12.20;;;9.50;99.90;;;;;;4881955;29;20121;-90
2022/03/15 11:37:35;;;;;;;18.10;11.07;;;9.60;99.90;;;;;;4859916;29;20052;-88
2022/03/15 11:40:04;;;;;;;18.73;10.68;;;9.60;99.90;;;;;;4859313;29;20049;-87
2022/03/15 11:42:32;;;;;;;20.13;10.45;;;9.70;99.90;;;;;;4884596;29;20084;-87
2022/03/15 11:45:11;;;;;;;14.77;9.77;;;9.70;99.90;;;;;;4858085;29;20048;-90
2022/03/15 11:48:01;;;;;;;14.55;8.68;;;9.80;99.90;;;;;;4868045;29;20111;-85
2022/03/15 11:51:08;;;;;;;12.95;9.20;;;9.80;99.90;;;;;;4863224;29;20124;-86
2022/03/15 11:53:55;;;;;;;13.52;8.82;;;9.80;99.90;;;;;;4876564;29;20045;-87
2022/03/15 11:56:32;;;;;;;15.93;9.80;;;9.80;99.90;;;;;;4866739;29;20057;-86
2022/03/15 11:59:00;;;;;;;15.70;9.70;;;9.80;99.90;;;;;;4867655;29;20060;-88
2022/03/15 12:01:28;;;;;;;13.77;10.20;;;9.80;99.90;;;;;;4866443;29;20045;-88
2022/03/15 12:03:59;;;;;;;15.52;9.05;;;9.90;99.90;;;;;;4896050;29;20184;-87
2022/03/15 12:06:27;;;;;;;15.57;10.00;;;9.90;99.90;;;;;;4877595;29;20127;-87
2022/03/15 12:09:00;;;;;;;14.80;7.63;;;9.90;99.90;;;;;;4874508;29;20075;-87
2022/03/15 12:11:40;;;;;;;11.10;7.15;;;10.00;99.90;;;;;;4865737;29;20128;-87
2022/03/15 12:14:08;;;;;;;14.20;7.80;;;10.10;99.90;;;;;;4894021;29;20968;-87
2022/03/15 12:16:44;;;;;;;11.50;6.75;;;10.10;99.90;;;;;;4849764;29;20052;-86
2022/03/15 12:19:55;;;;;;;11.05;7.47;;;10.10;99.90;;;;;;4886992;29;20545;-87
2022/03/15 12:22:09;;;;;;;12.15;7.28;;;10.10;99.90;;;;;;4867109;29;20076;-87
2022/03/15 12:24:42;;;;;;;9.80;6.57;;;10.20;99.90;;;;;;4875158;29;20049;-87
2022/03/15 12:27:27;;;;;;;10.02;7.00;;;10.20;99.90;;;;;;4868689;29;20052;-87
2022/03/15 12:29:54;;;;;;;9.88;6.85;;;10.30;99.90;;;;;;4876509;29;20059;-87
2022/03/15 12:32:20;;;;;;;13.07;7.18;;;10.30;99.90;;;;;;4860027;29;20053;-87
2022/03/15 12:34:51;;;;;;;10.07;7.32;;;10.30;99.90;;;;;;4869946;29;20049;-87
2022/03/15 12:37:31;;;;;;;10.30;6.32;;;10.30;99.90;;;;;;4879469;29;20624;-86
2022/03/15 12:39:59;;;;;;;12.55;7.07;;;10.40;99.90;;;;;;4872929;29;20516;-87
2022/03/15 12:42:25;;;;;;;8.93;5.97;;;10.40;99.90;;;;;;4887483;29;20044;-87
2022/03/15 12:44:52;;;;;;;7.75;5.55;;;10.40;99.90;;;;;;4890803;29;20048;-86
2022/03/15 12:47:25;;;;;;;8.60;5.72;;;10.50;99.90;;;;;;4877748;29;20511;-89
2022/03/15 12:50:13;;;;;;;8.35;5.57;;;10.50;99.90;;;;;;4884527;29;20556;-86
2022/03/15 12:52:42;;;;;;;;;;;10.60;99.90;;;;;;4881590;29;20052;-89